sensor_id;sensor_type;location;lat;lon;timestamp;P1;durP1;ratioP1;P2;durP2;ratioP2
3070;SDS011;1546;47.208;9.038;2023-04-06T00:00:00;9.10;;;4.90;;
3070;SDS011;1546;47.208;9.038;2023-04-06T00:02:29;11.82;;;5.30;;
3070;SDS011;1546;47.208;9.038;2023-04-06T00:04:55;8.75;;;4.60;;
3070;SDS011;1546;47.208;9.038;2023-04-06T00:07:22;13.52;;;5.10;;
3070;SDS011;1546;47.208;9.038;2023-04-06T00:09:50;9.32;;;4.90;;
3070;SDS011;1546;47.208;9.038;2023-04-06T00:12:17;12.30;;;5.05;;
3070;SDS011;1546;47.208;9.038;2023-04-06T00:14:44;10.75;;;4.78;;
3070;SDS011;1546;47.208;9.038;2023-04-06T00:17:11;10.18;;;4.43;;
3070;SDS011;1546;47.208;9.038;2023-04-06T00:19:38;7.43;;;4.53;;
3070;SDS011;1546;47.208;9.038;2023-04-06T00:22:05;9.40;;;4.47;;
3070;SDS011;1546;47.208;9.038;2023-04-06T00:24:32;8.52;;;4.60;;
3070;SDS011;1546;47.208;9.038;2023-04-06T00:27:00;8.45;;;4.07;;
3070;SDS011;1546;47.208;9.038;2023-04-06T00:29:27;9.80;;;4.70;;
3070;SDS011;1546;47.208;9.038;2023-04-06T00:31:54;9.02;;;4.80;;
3070;SDS011;1546;47.208;9.038;2023-04-06T00:34:21;9.10;;;3.85;;
3070;SDS011;1546;47.208;9.038;2023-04-06T00:36:48;8.95;;;4.05;;
3070;SDS011;1546;47.208;9.038;2023-04-06T00:39:15;9.30;;;3.78;;
3070;SDS011;1546;47.208;9.038;2023-04-06T00:41:42;12.15;;;4.70;;
3070;SDS011;1546;47.208;9.038;2023-04-06T00:44:15;8.02;;;3.80;;
3070;SDS011;1546;47.208;9.038;2023-04-06T00:46:41;7.05;;;4.00;;
3070;SDS011;1546;47.208;9.038;2023-04-06T00:49:08;8.55;;;4.03;;
3070;SDS011;1546;47.208;9.038;2023-04-06T00:51:36;7.50;;;3.80;;
3070;SDS011;1546;47.208;9.038;2023-04-06T00:54:03;8.65;;;4.13;;
3070;SDS011;1546;47.208;9.038;2023-04-06T00:56:30;8.40;;;4.00;;
3070;SDS011;1546;47.208;9.038;2023-04-06T00:58:57;8.77;;;3.88;;
3070;SDS011;1546;47.208;9.038;2023-04-06T01:01:25;10.35;;;4.85;;
3070;SDS011;1546;47.208;9.038;2023-04-06T01:03:53;9.45;;;4.80;;
3070;SDS011;1546;47.208;9.038;2023-04-06T01:06:20;14.45;;;5.45;;
3070;SDS011;1546;47.208;9.038;2023-04-06T01:08:47;10.60;;;5.10;;
3070;SDS011;1546;47.208;9.038;2023-04-06T01:11:14;12.15;;;5.05;;
3070;SDS011;1546;47.208;9.038;2023-04-06T01:13:41;10.68;;;5.25;;
3070;SDS011;1546;47.208;9.038;2023-04-06T01:16:08;10.45;;;5.25;;
3070;SDS011;1546;47.208;9.038;2023-04-06T01:18:37;13.10;;;5.25;;
3070;SDS011;1546;47.208;9.038;2023-04-06T01:21:04;8.50;;;3.85;;
3070;SDS011;1546;47.208;9.038;2023-04-06T01:23:35;9.35;;;5.20;;
3070;SDS011;1546;47.208;9.038;2023-04-06T01:26:02;8.65;;;4.40;;
3070;SDS011;1546;47.208;9.038;2023-04-06T01:28:28;6.85;;;3.75;;
3070;SDS011;1546;47.208;9.038;2023-04-06T01:30:55;13.15;;;4.40;;
3070;SDS011;1546;47.208;9.038;2023-04-06T01:33:22;6.32;;;3.30;;
3070;SDS011;1546;47.208;9.038;2023-04-06T01:35:49;9.70;;;3.58;;
3070;SDS011;1546;47.208;9.038;2023-04-06T01:38:16;8.77;;;4.25;;
3070;SDS011;1546;47.208;9.038;2023-04-06T01:40:44;9.57;;;4.93;;
3070;SDS011;1546;47.208;9.038;2023-04-06T01:43:11;10.52;;;4.20;;
3070;SDS011;1546;47.208;9.038;2023-04-06T01:45:38;8.15;;;4.05;;
3070;SDS011;1546;47.208;9.038;2023-04-06T01:48:05;9.93;;;4.75;;
3070;SDS011;1546;47.208;9.038;2023-04-06T01:50:33;9.20;;;4.72;;
3070;SDS011;1546;47.208;9.038;2023-04-06T01:53:00;10.40;;;4.57;;
3070;SDS011;1546;47.208;9.038;2023-04-06T01:55:27;8.20;;;4.20;;
3070;SDS011;1546;47.208;9.038;2023-04-06T01:57:55;14.70;;;4.82;;
3070;SDS011;1546;47.208;9.038;2023-04-06T02:00:22;7.53;;;3.97;;
3070;SDS011;1546;47.208;9.038;2023-04-06T02:02:49;10.00;;;4.63;;
3070;SDS011;1546;47.208;9.038;2023-04-06T02:05:16;11.02;;;5.07;;
3070;SDS011;1546;47.208;9.038;2023-04-06T02:07:43;9.02;;;3.55;;
3070;SDS011;1546;47.208;9.038;2023-04-06T02:10:11;8.20;;;4.85;;
3070;SDS011;1546;47.208;9.038;2023-04-06T02:12:39;11.43;;;5.70;;
3070;SDS011;1546;47.208;9.038;2023-04-06T02:15:07;7.57;;;4.30;;
3070;SDS011;1546;47.208;9.038;2023-04-06T02:17:35;11.82;;;4.72;;
3070;SDS011;1546;47.208;9.038;2023-04-06T02:20:02;7.95;;;4.18;;
3070;SDS011;1546;47.208;9.038;2023-04-06T02:22:29;10.70;;;4.20;;
3070;SDS011;1546;47.208;9.038;2023-04-06T02:24:56;8.70;;;4.80;;
3070;SDS011;1546;47.208;9.038;2023-04-06T02:27:23;10.10;;;4.15;;
3070;SDS011;1546;47.208;9.038;2023-04-06T02:29:50;10.82;;;4.00;;
3070;SDS011;1546;47.208;9.038;2023-04-06T02:32:18;12.40;;;5.05;;
3070;SDS011;1546;47.208;9.038;2023-04-06T02:34:45;8.80;;;4.60;;
3070;SDS011;1546;47.208;9.038;2023-04-06T02:37:12;8.23;;;4.32;;
3070;SDS011;1546;47.208;9.038;2023-04-06T02:39:39;9.38;;;4.30;;
3070;SDS011;1546;47.208;9.038;2023-04-06T02:42:06;8.23;;;4.18;;
3070;SDS011;1546;47.208;9.038;2023-04-06T02:44:34;11.10;;;5.78;;
3070;SDS011;1546;47.208;9.038;2023-04-06T02:47:01;9.77;;;4.55;;
3070;SDS011;1546;47.208;9.038;2023-04-06T02:49:29;11.20;;;5.40;;
3070;SDS011;1546;47.208;9.038;2023-04-06T02:51:56;12.63;;;7.22;;
3070;SDS011;1546;47.208;9.038;2023-04-06T02:54:23;8.95;;;4.50;;
3070;SDS011;1546;47.208;9.038;2023-04-06T02:56:50;7.15;;;4.15;;
3070;SDS011;1546;47.208;9.038;2023-04-06T02:59:17;13.10;;;3.90;;
3070;SDS011;1546;47.208;9.038;2023-04-06T03:01:43;10.05;;;4.40;;
3070;SDS011;1546;47.208;9.038;2023-04-06T03:04:10;8.90;;;4.43;;
3070;SDS011;1546;47.208;9.038;2023-04-06T03:06:39;7.78;;;3.90;;
3070;SDS011;1546;47.208;9.038;2023-04-06T03:09:06;9.07;;;4.88;;
3070;SDS011;1546;47.208;9.038;2023-04-06T03:11:32;9.07;;;4.10;;
3070;SDS011;1546;47.208;9.038;2023-04-06T03:13:59;8.50;;;4.10;;
3070;SDS011;1546;47.208;9.038;2023-04-06T03:16:26;7.70;;;4.57;;
3070;SDS011;1546;47.208;9.038;2023-04-06T03:18:53;9.70;;;4.40;;
3070;SDS011;1546;47.208;9.038;2023-04-06T03:21:20;8.63;;;4.00;;
3070;SDS011;1546;47.208;9.038;2023-04-06T03:23:48;8.07;;;3.78;;
3070;SDS011;1546;47.208;9.038;2023-04-06T03:26:16;10.50;;;4.22;;
3070;SDS011;1546;47.208;9.038;2023-04-06T03:28:43;12.40;;;4.80;;
3070;SDS011;1546;47.208;9.038;2023-04-06T03:31:09;8.73;;;4.25;;
3070;SDS011;1546;47.208;9.038;2023-04-06T03:33:37;6.38;;;3.30;;
3070;SDS011;1546;47.208;9.038;2023-04-06T03:36:04;9.70;;;5.38;;
3070;SDS011;1546;47.208;9.038;2023-04-06T03:38:35;11.90;;;4.32;;
3070;SDS011;1546;47.208;9.038;2023-04-06T03:41:04;7.07;;;4.20;;
3070;SDS011;1546;47.208;9.038;2023-04-06T03:43:31;9.50;;;3.72;;
3070;SDS011;1546;47.208;9.038;2023-04-06T03:45:57;8.60;;;4.78;;
3070;SDS011;1546;47.208;9.038;2023-04-06T03:48:24;7.80;;;3.55;;
3070;SDS011;1546;47.208;9.038;2023-04-06T03:50:51;10.65;;;4.53;;
3070;SDS011;1546;47.208;9.038;2023-04-06T03:53:18;8.30;;;4.60;;
3070;SDS011;1546;47.208;9.038;2023-04-06T03:55:45;9.90;;;4.90;;
3070;SDS011;1546;47.208;9.038;2023-04-06T03:58:13;6.68;;;3.33;;
3070;SDS011;1546;47.208;9.038;2023-04-06T04:00:40;9.27;;;4.30;;
3070;SDS011;1546;47.208;9.038;2023-04-06T04:03:07;9.25;;;4.13;;
3070;SDS011;1546;47.208;9.038;2023-04-06T04:05:34;9.30;;;4.47;;
3070;SDS011;1546;47.208;9.038;2023-04-06T04:08:01;9.88;;;4.75;;
3070;SDS011;1546;47.208;9.038;2023-04-06T04:10:27;8.50;;;4.72;;
3070;SDS011;1546;47.208;9.038;2023-04-06T04:12:54;9.30;;;4.43;;
3070;SDS011;1546;47.208;9.038;2023-04-06T04:15:23;6.20;;;3.50;;
3070;SDS011;1546;47.208;9.038;2023-04-06T04:17:50;7.72;;;3.50;;
3070;SDS011;1546;47.208;9.038;2023-04-06T04:20:17;6.82;;;3.35;;
3070;SDS011;1546;47.208;9.038;2023-04-06T04:22:44;8.45;;;4.68;;
3070;SDS011;1546;47.208;9.038;2023-04-06T04:25:10;11.20;;;3.67;;
3070;SDS011;1546;47.208;9.038;2023-04-06T04:27:37;8.90;;;4.45;;
3070;SDS011;1546;47.208;9.038;2023-04-06T04:30:05;8.65;;;4.60;;
3070;SDS011;1546;47.208;9.038;2023-04-06T04:32:34;10.13;;;5.53;;
3070;SDS011;1546;47.208;9.038;2023-04-06T04:35:01;10.05;;;4.40;;
3070;SDS011;1546;47.208;9.038;2023-04-06T04:37:28;10.60;;;4.65;;
3070;SDS011;1546;47.208;9.038;2023-04-06T04:39:55;9.43;;;4.80;;
3070;SDS011;1546;47.208;9.038;2023-04-06T04:42:22;12.40;;;5.82;;
3070;SDS011;1546;47.208;9.038;2023-04-06T04:44:49;8.77;;;4.50;;
3070;SDS011;1546;47.208;9.038;2023-04-06T04:47:16;9.15;;;4.05;;
3070;SDS011;1546;47.208;9.038;2023-04-06T04:49:44;8.38;;;4.53;;
3070;SDS011;1546;47.208;9.038;2023-04-06T04:52:11;9.27;;;4.10;;
3070;SDS011;1546;47.208;9.038;2023-04-06T04:54:38;10.40;;;4.75;;
3070;SDS011;1546;47.208;9.038;2023-04-06T04:57:06;8.57;;;4.72;;
3070;SDS011;1546;47.208;9.038;2023-04-06T04:59:33;11.27;;;4.70;;
3070;SDS011;1546;47.208;9.038;2023-04-06T05:02:00;12.75;;;4.50;;
3070;SDS011;1546;47.208;9.038;2023-04-06T05:04:27;6.63;;;3.30;;
3070;SDS011;1546;47.208;9.038;2023-04-06T05:07:02;13.95;;;5.25;;
3070;SDS011;1546;47.208;9.038;2023-04-06T05:09:30;9.35;;;4.72;;
3070;SDS011;1546;47.208;9.038;2023-04-06T05:11:57;7.90;;;3.95;;
3070;SDS011;1546;47.208;9.038;2023-04-06T05:14:24;8.35;;;3.97;;
3070;SDS011;1546;47.208;9.038;2023-04-06T05:16:51;8.10;;;3.97;;
3070;SDS011;1546;47.208;9.038;2023-04-06T05:19:18;10.10;;;4.45;;
3070;SDS011;1546;47.208;9.038;2023-04-06T05:21:45;9.48;;;4.22;;
3070;SDS011;1546;47.208;9.038;2023-04-06T05:24:13;7.82;;;3.75;;
3070;SDS011;1546;47.208;9.038;2023-04-06T05:26:40;8.48;;;3.55;;
3070;SDS011;1546;47.208;9.038;2023-04-06T05:29:07;8.68;;;5.18;;
3070;SDS011;1546;47.208;9.038;2023-04-06T05:31:34;6.43;;;3.70;;
3070;SDS011;1546;47.208;9.038;2023-04-06T05:34:01;13.05;;;4.82;;
3070;SDS011;1546;47.208;9.038;2023-04-06T05:36:28;11.77;;;4.68;;
3070;SDS011;1546;47.208;9.038;2023-04-06T05:38:55;8.77;;;4.32;;
3070;SDS011;1546;47.208;9.038;2023-04-06T05:41:24;9.25;;;4.30;;
3070;SDS011;1546;47.208;9.038;2023-04-06T05:43:51;8.43;;;3.92;;
3070;SDS011;1546;47.208;9.038;2023-04-06T05:46:18;8.40;;;3.83;;
3070;SDS011;1546;47.208;9.038;2023-04-06T05:48:45;9.10;;;5.13;;
3070;SDS011;1546;47.208;9.038;2023-04-06T05:51:12;8.50;;;4.50;;
3070;SDS011;1546;47.208;9.038;2023-04-06T05:53:39;9.00;;;2.97;;
3070;SDS011;1546;47.208;9.038;2023-04-06T05:56:06;8.93;;;4.07;;
3070;SDS011;1546;47.208;9.038;2023-04-06T05:58:34;7.25;;;3.35;;
3070;SDS011;1546;47.208;9.038;2023-04-06T06:01:01;8.75;;;4.22;;
3070;SDS011;1546;47.208;9.038;2023-04-06T06:03:29;7.05;;;3.15;;
3070;SDS011;1546;47.208;9.038;2023-04-06T06:06:00;6.20;;;3.20;;
3070;SDS011;1546;47.208;9.038;2023-04-06T06:08:27;7.60;;;3.83;;
3070;SDS011;1546;47.208;9.038;2023-04-06T06:10:54;7.10;;;3.35;;
3070;SDS011;1546;47.208;9.038;2023-04-06T06:13:21;9.80;;;5.15;;
3070;SDS011;1546;47.208;9.038;2023-04-06T06:15:50;7.60;;;4.10;;
3070;SDS011;1546;47.208;9.038;2023-04-06T06:18:17;7.82;;;4.10;;
3070;SDS011;1546;47.208;9.038;2023-04-06T06:20:44;10.05;;;4.78;;
3070;SDS011;1546;47.208;9.038;2023-04-06T06:23:10;11.20;;;5.65;;
3070;SDS011;1546;47.208;9.038;2023-04-06T06:25:37;7.85;;;4.43;;
3070;SDS011;1546;47.208;9.038;2023-04-06T06:28:05;9.93;;;5.32;;
3070;SDS011;1546;47.208;9.038;2023-04-06T06:30:31;10.80;;;5.63;;
3070;SDS011;1546;47.208;9.038;2023-04-06T06:33:00;9.68;;;5.22;;
3070;SDS011;1546;47.208;9.038;2023-04-06T06:35:28;17.77;;;5.50;;
3070;SDS011;1546;47.208;9.038;2023-04-06T06:37:55;9.48;;;5.15;;
3070;SDS011;1546;47.208;9.038;2023-04-06T06:40:22;8.73;;;5.75;;
3070;SDS011;1546;47.208;9.038;2023-04-06T06:42:51;8.82;;;4.38;;
3070;SDS011;1546;47.208;9.038;2023-04-06T06:45:17;7.88;;;4.30;;
3070;SDS011;1546;47.208;9.038;2023-04-06T06:47:45;7.70;;;4.55;;
3070;SDS011;1546;47.208;9.038;2023-04-06T06:50:13;8.82;;;4.90;;
3070;SDS011;1546;47.208;9.038;2023-04-06T06:52:40;10.25;;;4.88;;
3070;SDS011;1546;47.208;9.038;2023-04-06T06:55:08;10.80;;;4.47;;
3070;SDS011;1546;47.208;9.038;2023-04-06T06:57:36;8.88;;;5.30;;
3070;SDS011;1546;47.208;9.038;2023-04-06T07:00:03;9.88;;;4.85;;
3070;SDS011;1546;47.208;9.038;2023-04-06T07:02:33;25.35;;;5.57;;
3070;SDS011;1546;47.208;9.038;2023-04-06T07:05:00;9.63;;;5.38;;
3070;SDS011;1546;47.208;9.038;2023-04-06T07:07:29;10.98;;;5.00;;
3070;SDS011;1546;47.208;9.038;2023-04-06T07:09:56;10.50;;;5.25;;
3070;SDS011;1546;47.208;9.038;2023-04-06T07:12:23;8.77;;;5.57;;
3070;SDS011;1546;47.208;9.038;2023-04-06T07:14:50;9.00;;;5.15;;
3070;SDS011;1546;47.208;9.038;2023-04-06T07:17:17;12.43;;;5.72;;
3070;SDS011;1546;47.208;9.038;2023-04-06T07:19:44;10.50;;;4.65;;
3070;SDS011;1546;47.208;9.038;2023-04-06T07:22:11;9.43;;;5.10;;
3070;SDS011;1546;47.208;9.038;2023-04-06T07:24:39;13.43;;;6.15;;
3070;SDS011;1546;47.208;9.038;2023-04-06T07:27:06;11.80;;;6.43;;
3070;SDS011;1546;47.208;9.038;2023-04-06T07:29:33;11.27;;;6.35;;
3070;SDS011;1546;47.208;9.038;2023-04-06T07:32:00;9.57;;;5.15;;
3070;SDS011;1546;47.208;9.038;2023-04-06T07:34:27;10.88;;;5.72;;
3070;SDS011;1546;47.208;9.038;2023-04-06T07:36:53;9.32;;;4.78;;
3070;SDS011;1546;47.208;9.038;2023-04-06T07:39:21;9.50;;;5.97;;
3070;SDS011;1546;47.208;9.038;2023-04-06T07:41:50;7.50;;;4.28;;
3070;SDS011;1546;47.208;9.038;2023-04-06T07:44:17;9.57;;;5.43;;
3070;SDS011;1546;47.208;9.038;2023-04-06T07:46:44;9.88;;;5.85;;
3070;SDS011;1546;47.208;9.038;2023-04-06T07:49:11;13.05;;;6.38;;
3070;SDS011;1546;47.208;9.038;2023-04-06T07:51:38;9.90;;;4.85;;
3070;SDS011;1546;47.208;9.038;2023-04-06T07:54:05;11.15;;;5.70;;
3070;SDS011;1546;47.208;9.038;2023-04-06T07:56:32;9.23;;;4.90;;
3070;SDS011;1546;47.208;9.038;2023-04-06T07:59:00;11.18;;;6.00;;
3070;SDS011;1546;47.208;9.038;2023-04-06T08:01:28;8.48;;;5.82;;
3070;SDS011;1546;47.208;9.038;2023-04-06T08:03:55;9.30;;;4.72;;
3070;SDS011;1546;47.208;9.038;2023-04-06T08:06:23;10.10;;;5.50;;
3070;SDS011;1546;47.208;9.038;2023-04-06T08:08:50;15.25;;;5.50;;
3070;SDS011;1546;47.208;9.038;2023-04-06T08:11:17;8.65;;;5.00;;
3070;SDS011;1546;47.208;9.038;2023-04-06T08:13:43;10.70;;;6.55;;
3070;SDS011;1546;47.208;9.038;2023-04-06T08:16:12;11.30;;;6.47;;
3070;SDS011;1546;47.208;9.038;2023-04-06T08:18:38;9.02;;;5.05;;
3070;SDS011;1546;47.208;9.038;2023-04-06T08:21:05;11.95;;;5.70;;
3070;SDS011;1546;47.208;9.038;2023-04-06T08:23:32;10.13;;;6.35;;
3070;SDS011;1546;47.208;9.038;2023-04-06T08:25:59;8.20;;;5.05;;
3070;SDS011;1546;47.208;9.038;2023-04-06T08:28:26;8.95;;;5.78;;
3070;SDS011;1546;47.208;9.038;2023-04-06T08:30:53;7.75;;;4.18;;
3070;SDS011;1546;47.208;9.038;2023-04-06T08:33:22;7.90;;;4.72;;
3070;SDS011;1546;47.208;9.038;2023-04-06T08:35:48;8.55;;;5.30;;
3070;SDS011;1546;47.208;9.038;2023-04-06T08:38:15;10.63;;;6.00;;
3070;SDS011;1546;47.208;9.038;2023-04-06T08:40:42;10.32;;;4.88;;
3070;SDS011;1546;47.208;9.038;2023-04-06T08:43:12;11.00;;;5.40;;
3070;SDS011;1546;47.208;9.038;2023-04-06T08:45:40;10.20;;;4.80;;
3070;SDS011;1546;47.208;9.038;2023-04-06T08:48:08;9.65;;;6.00;;
3070;SDS011;1546;47.208;9.038;2023-04-06T08:50:37;8.85;;;4.80;;
3070;SDS011;1546;47.208;9.038;2023-04-06T08:53:05;9.63;;;5.53;;
3070;SDS011;1546;47.208;9.038;2023-04-06T08:55:33;10.10;;;5.97;;
3070;SDS011;1546;47.208;9.038;2023-04-06T08:58:02;11.30;;;5.53;;
3070;SDS011;1546;47.208;9.038;2023-04-06T09:00:32;8.57;;;5.65;;
3070;SDS011;1546;47.208;9.038;2023-04-06T09:03:02;10.93;;;6.47;;
3070;SDS011;1546;47.208;9.038;2023-04-06T09:05:31;8.25;;;5.10;;
3070;SDS011;1546;47.208;9.038;2023-04-06T09:07:59;9.77;;;5.50;;
3070;SDS011;1546;47.208;9.038;2023-04-06T09:10:26;11.32;;;6.05;;
3070;SDS011;1546;47.208;9.038;2023-04-06T09:13:02;11.50;;;6.70;;
3070;SDS011;1546;47.208;9.038;2023-04-06T09:15:29;9.48;;;5.15;;
3070;SDS011;1546;47.208;9.038;2023-04-06T09:17:56;11.05;;;5.75;;
3070;SDS011;1546;47.208;9.038;2023-04-06T09:20:23;10.10;;;5.95;;
3070;SDS011;1546;47.208;9.038;2023-04-06T09:22:52;15.02;;;7.05;;
3070;SDS011;1546;47.208;9.038;2023-04-06T09:25:22;10.02;;;5.20;;
3070;SDS011;1546;47.208;9.038;2023-04-06T09:27:57;8.60;;;5.00;;
3070;SDS011;1546;47.208;9.038;2023-04-06T09:30:25;10.65;;;5.00;;
3070;SDS011;1546;47.208;9.038;2023-04-06T09:32:52;9.95;;;5.18;;
3070;SDS011;1546;47.208;9.038;2023-04-06T09:35:20;9.10;;;5.63;;
3070;SDS011;1546;47.208;9.038;2023-04-06T09:37:48;10.57;;;6.18;;
3070;SDS011;1546;47.208;9.038;2023-04-06T09:40:17;10.15;;;5.47;;
3070;SDS011;1546;47.208;9.038;2023-04-06T09:42:46;10.10;;;5.95;;
3070;SDS011;1546;47.208;9.038;2023-04-06T09:45:15;10.15;;;5.50;;
3070;SDS011;1546;47.208;9.038;2023-04-06T09:47:42;9.60;;;5.50;;
3070;SDS011;1546;47.208;9.038;2023-04-06T09:50:11;12.13;;;5.53;;
3070;SDS011;1546;47.208;9.038;2023-04-06T09:52:41;10.85;;;6.07;;
3070;SDS011;1546;47.208;9.038;2023-04-06T09:55:12;8.85;;;5.05;;
3070;SDS011;1546;47.208;9.038;2023-04-06T09:58:01;10.05;;;5.70;;
3070;SDS011;1546;47.208;9.038;2023-04-06T10:00:32;9.10;;;5.50;;
3070;SDS011;1546;47.208;9.038;2023-04-06T10:03:07;9.73;;;6.00;;
3070;SDS011;1546;47.208;9.038;2023-04-06T10:05:42;8.35;;;4.82;;
3070;SDS011;1546;47.208;9.038;2023-04-06T10:08:16;10.18;;;6.25;;
3070;SDS011;1546;47.208;9.038;2023-04-06T10:10:45;11.77;;;5.87;;
3070;SDS011;1546;47.208;9.038;2023-04-06T10:13:15;10.20;;;5.88;;
3070;SDS011;1546;47.208;9.038;2023-04-06T10:15:42;11.15;;;4.93;;
3070;SDS011;1546;47.208;9.038;2023-04-06T10:18:10;11.48;;;6.13;;
3070;SDS011;1546;47.208;9.038;2023-04-06T10:20:38;14.15;;;7.03;;
3070;SDS011;1546;47.208;9.038;2023-04-06T10:23:10;11.05;;;5.60;;
3070;SDS011;1546;47.208;9.038;2023-04-06T10:25:51;9.85;;;5.30;;
3070;SDS011;1546;47.208;9.038;2023-04-06T10:28:19;9.68;;;5.88;;
3070;SDS011;1546;47.208;9.038;2023-04-06T10:30:46;11.90;;;6.20;;
3070;SDS011;1546;47.208;9.038;2023-04-06T10:33:13;22.52;;;5.68;;
3070;SDS011;1546;47.208;9.038;2023-04-06T10:35:41;10.23;;;5.63;;
3070;SDS011;1546;47.208;9.038;2023-04-06T10:38:08;9.35;;;5.82;;
3070;SDS011;1546;47.208;9.038;2023-04-06T10:40:37;9.77;;;6.45;;
3070;SDS011;1546;47.208;9.038;2023-04-06T10:43:08;9.05;;;5.63;;
3070;SDS011;1546;47.208;9.038;2023-04-06T10:45:37;8.50;;;5.00;;
3070;SDS011;1546;47.208;9.038;2023-04-06T10:48:13;10.43;;;5.70;;
3070;SDS011;1546;47.208;9.038;2023-04-06T10:50:41;14.15;;;6.57;;
3070;SDS011;1546;47.208;9.038;2023-04-06T10:53:09;9.15;;;5.43;;
3070;SDS011;1546;47.208;9.038;2023-04-06T10:55:37;9.38;;;5.47;;
3070;SDS011;1546;47.208;9.038;2023-04-06T10:58:06;10.63;;;6.25;;
3070;SDS011;1546;47.208;9.038;2023-04-06T11:00:33;9.13;;;6.00;;
3070;SDS011;1546;47.208;9.038;2023-04-06T11:03:02;10.30;;;6.97;;
3070;SDS011;1546;47.208;9.038;2023-04-06T11:05:28;12.60;;;6.93;;
3070;SDS011;1546;47.208;9.038;2023-04-06T11:07:56;11.88;;;6.90;;
3070;SDS011;1546;47.208;9.038;2023-04-06T11:10:23;12.10;;;7.30;;
3070;SDS011;1546;47.208;9.038;2023-04-06T11:12:53;12.18;;;7.05;;
3070;SDS011;1546;47.208;9.038;2023-04-06T11:15:20;12.25;;;7.30;;
3070;SDS011;1546;47.208;9.038;2023-04-06T11:17:47;9.98;;;6.32;;
3070;SDS011;1546;47.208;9.038;2023-04-06T11:20:16;10.82;;;6.90;;
3070;SDS011;1546;47.208;9.038;2023-04-06T11:22:47;11.32;;;7.63;;
3070;SDS011;1546;47.208;9.038;2023-04-06T11:25:16;10.70;;;7.03;;
3070;SDS011;1546;47.208;9.038;2023-04-06T11:27:43;14.00;;;6.53;;
3070;SDS011;1546;47.208;9.038;2023-04-06T11:30:12;11.30;;;6.28;;
3070;SDS011;1546;47.208;9.038;2023-04-06T11:32:40;11.40;;;6.50;;
3070;SDS011;1546;47.208;9.038;2023-04-06T11:35:10;10.00;;;6.57;;
3070;SDS011;1546;47.208;9.038;2023-04-06T11:37:39;10.82;;;6.68;;
3070;SDS011;1546;47.208;9.038;2023-04-06T11:40:10;10.32;;;5.97;;
3070;SDS011;1546;47.208;9.038;2023-04-06T11:42:37;10.45;;;6.75;;
3070;SDS011;1546;47.208;9.038;2023-04-06T11:45:04;10.85;;;6.20;;
3070;SDS011;1546;47.208;9.038;2023-04-06T11:47:34;16.35;;;5.88;;
3070;SDS011;1546;47.208;9.038;2023-04-06T11:50:05;10.00;;;5.57;;
3070;SDS011;1546;47.208;9.038;2023-04-06T11:52:33;10.30;;;5.63;;
3070;SDS011;1546;47.208;9.038;2023-04-06T11:55:09;11.43;;;6.60;;
3070;SDS011;1546;47.208;9.038;2023-04-06T11:57:37;8.13;;;5.28;;
3070;SDS011;1546;47.208;9.038;2023-04-06T12:00:05;9.90;;;6.07;;
3070;SDS011;1546;47.208;9.038;2023-04-06T12:02:33;9.38;;;6.00;;
3070;SDS011;1546;47.208;9.038;2023-04-06T12:05:01;8.50;;;5.35;;
3070;SDS011;1546;47.208;9.038;2023-04-06T12:07:28;9.70;;;6.10;;
3070;SDS011;1546;47.208;9.038;2023-04-06T12:09:55;10.50;;;6.32;;
3070;SDS011;1546;47.208;9.038;2023-04-06T12:12:23;10.60;;;7.03;;
3070;SDS011;1546;47.208;9.038;2023-04-06T12:14:50;11.80;;;7.10;;
3070;SDS011;1546;47.208;9.038;2023-04-06T12:17:17;9.50;;;6.10;;
3070;SDS011;1546;47.208;9.038;2023-04-06T12:19:45;10.95;;;6.63;;
3070;SDS011;1546;47.208;9.038;2023-04-06T12:22:12;10.93;;;7.10;;
3070;SDS011;1546;47.208;9.038;2023-04-06T12:24:39;10.20;;;6.60;;
3070;SDS011;1546;47.208;9.038;2023-04-06T12:27:06;9.70;;;6.40;;
3070;SDS011;1546;47.208;9.038;2023-04-06T12:29:35;11.82;;;6.82;;
3070;SDS011;1546;47.208;9.038;2023-04-06T12:32:02;9.63;;;6.07;;
3070;SDS011;1546;47.208;9.038;2023-04-06T12:34:29;9.43;;;5.80;;
3070;SDS011;1546;47.208;9.038;2023-04-06T12:36:55;10.68;;;6.40;;
3070;SDS011;1546;47.208;9.038;2023-04-06T12:39:22;10.77;;;6.13;;
3070;SDS011;1546;47.208;9.038;2023-04-06T12:41:50;10.35;;;5.90;;
3070;SDS011;1546;47.208;9.038;2023-04-06T12:44:17;10.13;;;6.30;;
3070;SDS011;1546;47.208;9.038;2023-04-06T12:46:45;11.40;;;6.90;;
3070;SDS011;1546;47.208;9.038;2023-04-06T12:49:12;9.15;;;5.88;;
3070;SDS011;1546;47.208;9.038;2023-04-06T12:51:41;11.88;;;6.88;;
3070;SDS011;1546;47.208;9.038;2023-04-06T12:54:08;10.25;;;7.18;;
3070;SDS011;1546;47.208;9.038;2023-04-06T12:56:36;11.35;;;6.90;;
3070;SDS011;1546;47.208;9.038;2023-04-06T12:59:03;9.98;;;5.88;;
3070;SDS011;1546;47.208;9.038;2023-04-06T13:01:30;12.00;;;6.95;;
3070;SDS011;1546;47.208;9.038;2023-04-06T13:03:59;9.32;;;6.15;;
3070;SDS011;1546;47.208;9.038;2023-04-06T13:06:26;8.25;;;5.90;;
3070;SDS011;1546;47.208;9.038;2023-04-06T13:08:53;11.15;;;6.88;;
3070;SDS011;1546;47.208;9.038;2023-04-06T13:11:20;10.05;;;6.00;;
3070;SDS011;1546;47.208;9.038;2023-04-06T13:13:49;16.25;;;7.32;;
3070;SDS011;1546;47.208;9.038;2023-04-06T13:16:16;11.65;;;6.85;;
3070;SDS011;1546;47.208;9.038;2023-04-06T13:18:42;10.68;;;6.75;;
3070;SDS011;1546;47.208;9.038;2023-04-06T13:21:12;10.98;;;6.60;;
3070;SDS011;1546;47.208;9.038;2023-04-06T13:23:41;11.48;;;7.05;;
3070;SDS011;1546;47.208;9.038;2023-04-06T13:26:08;9.80;;;7.05;;
3070;SDS011;1546;47.208;9.038;2023-04-06T13:28:35;10.00;;;6.50;;
3070;SDS011;1546;47.208;9.038;2023-04-06T13:31:04;11.30;;;7.35;;
3070;SDS011;1546;47.208;9.038;2023-04-06T13:33:31;11.70;;;6.45;;
3070;SDS011;1546;47.208;9.038;2023-04-06T13:35:59;10.20;;;6.80;;
3070;SDS011;1546;47.208;9.038;2023-04-06T13:38:27;10.60;;;6.47;;
3070;SDS011;1546;47.208;9.038;2023-04-06T13:40:54;11.40;;;7.88;;
3070;SDS011;1546;47.208;9.038;2023-04-06T13:43:21;11.70;;;7.93;;
3070;SDS011;1546;47.208;9.038;2023-04-06T13:45:51;10.52;;;7.00;;
3070;SDS011;1546;47.208;9.038;2023-04-06T13:48:19;10.60;;;7.00;;
3070;SDS011;1546;47.208;9.038;2023-04-06T13:50:47;9.55;;;6.38;;
3070;SDS011;1546;47.208;9.038;2023-04-06T13:53:13;11.93;;;6.93;;
3070;SDS011;1546;47.208;9.038;2023-04-06T13:55:42;10.07;;;6.30;;
3070;SDS011;1546;47.208;9.038;2023-04-06T13:58:08;10.98;;;7.82;;
3070;SDS011;1546;47.208;9.038;2023-04-06T14:00:35;13.77;;;8.13;;
3070;SDS011;1546;47.208;9.038;2023-04-06T14:03:03;10.27;;;6.60;;
3070;SDS011;1546;47.208;9.038;2023-04-06T14:05:30;11.00;;;6.70;;
3070;SDS011;1546;47.208;9.038;2023-04-06T14:07:57;10.40;;;6.18;;
3070;SDS011;1546;47.208;9.038;2023-04-06T14:10:24;10.93;;;6.80;;
3070;SDS011;1546;47.208;9.038;2023-04-06T14:12:53;10.93;;;6.55;;
3070;SDS011;1546;47.208;9.038;2023-04-06T14:15:20;10.90;;;7.18;;
3070;SDS011;1546;47.208;9.038;2023-04-06T14:17:48;10.48;;;6.60;;
3070;SDS011;1546;47.208;9.038;2023-04-06T14:20:16;10.57;;;6.45;;
3070;SDS011;1546;47.208;9.038;2023-04-06T14:22:43;10.35;;;7.07;;
3070;SDS011;1546;47.208;9.038;2023-04-06T14:25:10;10.45;;;6.40;;
3070;SDS011;1546;47.208;9.038;2023-04-06T14:27:37;8.50;;;6.00;;
3070;SDS011;1546;47.208;9.038;2023-04-06T14:30:06;9.18;;;5.55;;
3070;SDS011;1546;47.208;9.038;2023-04-06T14:32:34;8.50;;;5.60;;
3070;SDS011;1546;47.208;9.038;2023-04-06T14:35:01;9.50;;;6.40;;
3070;SDS011;1546;47.208;9.038;2023-04-06T14:37:28;10.35;;;5.22;;
3070;SDS011;1546;47.208;9.038;2023-04-06T14:39:55;9.40;;;5.60;;
3070;SDS011;1546;47.208;9.038;2023-04-06T14:42:21;9.60;;;5.85;;
3070;SDS011;1546;47.208;9.038;2023-04-06T14:44:48;9.05;;;6.20;;
3070;SDS011;1546;47.208;9.038;2023-04-06T14:47:17;15.53;;;5.37;;
3070;SDS011;1546;47.208;9.038;2023-04-06T14:49:45;8.07;;;5.57;;
3070;SDS011;1546;47.208;9.038;2023-04-06T14:52:12;8.43;;;4.97;;
3070;SDS011;1546;47.208;9.038;2023-04-06T14:54:39;12.25;;;6.47;;
3070;SDS011;1546;47.208;9.038;2023-04-06T14:57:06;9.82;;;5.95;;
3070;SDS011;1546;47.208;9.038;2023-04-06T14:59:33;7.78;;;4.90;;
3070;SDS011;1546;47.208;9.038;2023-04-06T15:02:00;8.93;;;4.75;;
3070;SDS011;1546;47.208;9.038;2023-04-06T15:04:29;9.68;;;5.25;;
3070;SDS011;1546;47.208;9.038;2023-04-06T15:06:57;9.25;;;5.07;;
3070;SDS011;1546;47.208;9.038;2023-04-06T15:09:24;8.50;;;5.05;;